Time;durP1;ratioP1;P1;durP2;ratioP2;P2;SDS_P1;SDS_P2;PMS_P1;PMS_P2;Temp;Humidity;BMP_temperature;BMP_pressure;BME280_temperature;BME280_humidity;BME280_pressure;Samples;Min_cycle;Max_cycle;Signal;HPM_P1;HPM_P2
2022/01/22 00:01:12;;;;;;;1.30;0.47;;;6.10;99.90;;;;;;20568802;28;20053;-44
2022/01/22 00:11:12;;;;;;;1.85;0.60;;;6.10;99.90;;;;;;20548619;28;20046;-45
2022/01/22 00:21:14;;;;;;;1.08;0.45;;;6.00;99.90;;;;;;20552468;28;20050;-45
2022/01/22 00:31:15;;;;;;;1.75;0.70;;;6.00;99.90;;;;;;20565065;28;20046;-45
2022/01/22 00:41:16;;;;;;;1.50;0.55;;;6.00;99.90;;;;;;20568213;28;20557;-45
2022/01/22 00:51:17;;;;;;;1.10;0.40;;;6.10;99.90;;;;;;20575574;28;20552;-45
2022/01/22 01:01:17;;;;;;;5.40;0.50;;;6.20;99.90;;;;;;20579608;28;20305;-45
2022/01/22 01:11:18;;;;;;;12.20;1.70;;;6.20;99.90;;;;;;20577614;28;20294;-45
2022/01/22 01:52:02;;;;;;;1.05;0.43;;;6.20;99.90;;;;;;20571347;28;20047;-44
2022/01/22 02:02:04;;;;;;;1.70;0.57;;;6.20;99.90;;;;;;20583312;28;20047;-45
2022/01/22 02:12:13;;;;;;;2.78;0.77;;;6.20;99.90;;;;;;20579919;28;20201;-45
2022/01/22 02:42:40;;;;;;;10.03;1.90;;;6.10;99.90;;;;;;20571558;28;20053;-45
2022/01/22 02:52:40;;;;;;;1.48;0.70;;;6.20;99.90;;;;;;20568348;28;20133;-45
2022/01/22 03:02:42;;;;;;;3.00;0.55;;;6.20;99.90;;;;;;20571505;28;20512;-45
2022/01/22 03:12:52;;;;;;;6.47;0.93;;;6.20;99.90;;;;;;20575121;28;21123;-45
2022/01/22 03:23:09;;;;;;;1.42;0.50;;;6.20;99.90;;;;;;20567233;28;20487;-45
2022/01/22 03:33:09;;;;;;;1.08;0.40;;;6.20;99.90;;;;;;20571950;28;20050;-45
2022/01/22 03:43:10;;;;;;;2.20;0.53;;;6.30;99.90;;;;;;20582939;28;20532;-45
2022/01/22 03:53:11;;;;;;;2.30;0.65;;;6.30;99.90;;;;;;20576396;28;20381;-45
2022/01/22 04:13:18;;;;;;;2.10;1.17;;;6.30;99.90;;;;;;20587724;28;20092;-45
2022/01/22 04:33:39;;;;;;;4.05;0.65;;;6.30;99.90;;;;;;20597036;28;20471;-45
2022/01/22 04:43:41;;;;;;;1.58;0.63;;;6.30;99.90;;;;;;20591077;28;20046;-44
2022/01/22 05:04:01;;;;;;;2.17;0.45;;;6.30;99.90;;;;;;20586598;28;20034;-45
2022/01/22 05:14:02;;;;;;;1.40;0.50;;;6.30;99.90;;;;;;20592479;28;20057;-45
2022/01/22 05:24:07;;;;;;;0.98;0.40;;;6.30;99.90;;;;;;20587708;28;20814;-44
2022/01/22 05:44:15;;;;;;;2.10;0.20;;;6.50;99.90;;;;;;20585621;28;20671;-45
2022/01/22 06:04:28;;;;;;;0.55;0.28;;;6.50;99.90;;;;;;20585551;28;20050;-45
2022/01/22 06:14:29;;;;;;;0.75;0.17;;;6.50;99.90;;;;;;20592475;28;20038;-45
2022/01/22 06:24:30;;;;;;;0.93;0.22;;;6.50;99.90;;;;;;20591764;28;20073;-45
2022/01/22 06:34:31;;;;;;;2.78;0.55;;;6.50;99.90;;;;;;20580930;28;20081;-45
2022/01/22 06:44:34;;;;;;;1.97;0.40;;;6.50;99.90;;;;;;20581963;28;20076;-45
2022/01/22 06:54:35;;;;;;;1.60;0.57;;;6.50;99.90;;;;;;20577403;28;20674;-45
2022/01/22 07:04:37;;;;;;;2.55;0.50;;;6.50;99.90;;;;;;20582766;28;20034;-45
2022/01/22 07:14:38;;;;;;;6.32;0.82;;;6.50;99.90;;;;;;20581571;28;20609;-45
2022/01/22 07:24:40;;;;;;;2.03;0.50;;;6.60;99.90;;;;;;20582699;28;20403;-45
2022/01/22 07:34:41;;;;;;;2.90;0.60;;;6.60;99.90;;;;;;20580473;28;20521;-45
2022/01/22 07:44:41;;;;;;;5.70;1.02;;;6.60;99.90;;;;;;20572610;28;20499;-45
2022/01/22 07:54:42;;;;;;;6.67;1.60;;;6.70;99.90;;;;;;20585402;28;20558;-45
2022/01/22 08:04:43;;;;;;;5.05;2.25;;;6.70;99.90;;;;;;20545456;28;20332;-44
2022/01/22 08:14:43;;;;;;;3.33;1.25;;;6.70;99.90;;;;;;20585737;28;20529;-45
2022/01/22 08:24:44;;;;;;;8.93;2.33;;;6.70;99.90;;;;;;20573733;28;20077;-45
2022/01/22 08:45:05;;;;;;;3.85;1.27;;;6.80;99.90;;;;;;20595949;28;20081;-45
2022/01/22 08:55:08;;;;;;;4.93;1.08;;;6.80;99.90;;;;;;20587360;28;20038;-45
2022/01/22 09:05:09;;;;;;;3.38;1.15;;;6.90;99.90;;;;;;20592222;28;20039;-45
2022/01/22 09:15:10;;;;;;;1.63;0.60;;;6.90;99.90;;;;;;20581294;28;20057;-45
2022/01/22 09:25:15;;;;;;;2.60;1.00;;;6.90;99.90;;;;;;20590607;28;20034;-45
2022/01/22 09:35:15;;;;;;;1.33;0.70;;;6.90;99.90;;;;;;20573159;28;20054;-45
2022/01/22 09:45:17;;;;;;;3.47;0.67;;;7.00;99.90;;;;;;20574462;28;20278;-45
2022/01/22 09:55:19;;;;;;;5.35;0.80;;;7.00;99.90;;;;;;20571815;28;20453;-45
2022/01/22 10:05:39;;;;;;;1.70;0.77;;;7.10;99.90;;;;;;20579499;28;20046;-45
2022/01/22 10:15:41;;;;;;;1.20;0.40;;;7.10;99.90;;;;;;20566070;28;20498;-45
2022/01/22 10:25:48;;;;;;;2.67;0.93;;;7.20;99.90;;;;;;20573140;28;20034;-45
2022/01/22 10:35:49;;;;;;;3.70;1.10;;;7.30;99.90;;;;;;20565020;28;20057;-45
2022/01/22 10:46:20;;;;;;;2.15;0.85;;;7.40;99.90;;;;;;20558291;28;20351;-45
2022/01/22 10:56:23;;;;;;;2.22;0.88;;;7.40;99.90;;;;;;20541060;28;20093;-44
2022/01/22 11:06:26;;;;;;;1.83;0.65;;;7.50;99.90;;;;;;20563285;28;20100;-45
2022/01/22 11:16:28;;;;;;;2.17;0.65;;;7.50;99.90;;;;;;20571360;28;20114;-45
2022/01/22 11:26:30;;;;;;;4.38;1.13;;;7.50;99.90;;;;;;20573443;28;20447;-45
2022/01/22 11:36:44;;;;;;;2.42;1.15;;;7.50;99.90;;;;;;20570395;28;20474;-45
2022/01/22 11:46:59;;;;;;;1.87;0.80;;;7.60;99.90;;;;;;20577800;28;20132;-45
2022/01/22 11:57:14;;;;;;;2.42;1.15;;;7.70;99.90;;;;;;20573203;28;20038;-45
2022/01/22 12:07:20;;;;;;;5.30;1.33;;;7.80;99.90;;;;;;20550027;28;20042;-45
2022/01/22 12:27:57;;;;;;;4.05;1.60;;;7.80;99.90;;;;;;20578064;28;20237;-45
2022/01/22 12:38:43;;;;;;;5.68;2.13;;;7.90;99.90;;;;;;20557430;28;20629;-45
2022/01/22 12:48:50;;;;;;;7.88;2.03;;;7.90;99.90;;;;;;20549783;28;20474;-45
2022/01/22 12:58:50;;;;;;;5.32;2.42;;;7.90;99.90;;;;;;20572195;28;20414;-45
2022/01/22 13:08:56;;;;;;;5.27;2.57;;;8.00;99.90;;;;;;20570600;28;20419;-45
2022/01/22 13:18:58;;;;;;;7.10;2.03;;;7.90;99.90;;;;;;20580122;28;20049;-45
2022/01/22 13:29:13;;;;;;;8.95;2.80;;;7.90;99.90;;;;;;20540759;28;20054;-45
2022/01/22 13:49:16;;;;;;;5.50;2.35;;;7.80;99.90;;;;;;20547763;28;20522;-45
2022/01/22 13:59:29;;;;;;;4.63;2.63;;;7.70;99.90;;;;;;20551695;28;20109;-45
2022/01/22 14:09:29;;;;;;;6.72;2.65;;;7.60;99.90;;;;;;20540122;28;20074;-45
2022/01/22 14:19:30;;;;;;;7.87;3.00;;;7.60;99.90;;;;;;20560314;28;20376;-45
2022/01/22 14:29:43;;;;;;;8.85;2.70;;;7.60;99.90;;;;;;20566468;28;20298;-45
2022/01/22 14:50:04;;;;;;;6.30;3.08;;;7.50;99.90;;;;;;20561767;28;20741;-45
2022/01/22 15:00:11;;;;;;;9.10;3.58;;;7.40;99.90;;;;;;20568484;28;20415;-45
2022/01/22 15:10:14;;;;;;;;;;;7.40;99.90;;;;;;20558942;28;20105;-45
2022/01/22 15:20:21;;;;;;;18.35;8.23;;;7.30;99.90;;;;;;20559911;28;19933;-45
2022/01/22 15:30:29;;;;;;;10.85;4.18;;;7.30;99.90;;;;;;20567297;28;20043;-45
2022/01/22 15:40:33;;;;;;;8.25;3.17;;;7.20;99.90;;;;;;20564227;28;20623;-45
2022/01/22 15:50:34;;;;;;;10.80;4.55;;;7.20;99.90;;;;;;20569422;28;20051;-45
2022/01/22 16:00:38;;;;;;;12.48;5.75;;;7.20;99.90;;;;;;20560298;28;20048;-45
2022/01/22 16:10:39;;;;;;;11.85;4.90;;;7.10;99.90;;;;;;20576078;28;20128;-45
2022/01/22 16:20:40;;;;;;;11.98;4.75;;;7.10;99.90;;;;;;20567067;28;20035;-45
2022/01/22 16:30:41;;;;;;;9.77;4.00;;;7.00;99.90;;;;;;20570036;28;20057;-45
2022/01/22 16:40:42;;;;;;;7.50;3.47;;;6.90;99.90;;;;;;20562079;28;20122;-45
2022/01/22 17:01:02;;;;;;;9.05;3.97;;;6.90;99.90;;;;;;20566383;28;20043;-45
2022/01/22 17:11:07;;;;;;;10.85;4.22;;;6.90;99.90;;;;;;20567613;28;20073;-45
2022/01/22 17:21:08;;;;;;;10.00;3.80;;;6.90;99.90;;;;;;20573657;28;20043;-45
2022/01/22 17:31:09;;;;;;;10.23;4.20;;;6.90;99.90;;;;;;20595300;28;20027;-45
2022/01/22 17:41:12;;;;;;;13.05;5.00;;;6.90;99.90;;;;;;20576049;28;20317;-45
2022/01/22 17:51:13;;;;;;;9.23;4.35;;;6.90;99.90;;;;;;20571830;28;20039;-45
2022/01/22 18:01:13;;;;;;;22.67;4.20;;;6.90;99.90;;;;;;20576888;28;21767;-45
2022/01/22 18:11:18;;;;;;;10.65;4.47;;;6.80;99.90;;;;;;20577582;28;20173;-45
2022/01/22 18:21:19;;;;;;;7.28;3.67;;;6.80;99.90;;;;;;20563136;28;20050;-45
2022/01/22 18:31:20;;;;;;;12.57;6.10;;;6.80;99.90;;;;;;20582387;28;20047;-45
2022/01/22 18:41:20;;;;;;;14.63;5.00;;;6.80;99.90;;;;;;20578279;28;20050;-45
2022/01/22 18:51:23;;;;;;;9.13;2.80;;;6.70;99.90;;;;;;20558290;28;20048;-45
2022/01/22 19:01:27;;;;;;;7.43;3.17;;;6.70;99.90;;;;;;20562388;28;21029;-45
2022/01/22 19:11:28;;;;;;;5.30;2.45;;;6.70;99.90;;;;;;20564149;28;20035;-45
2022/01/22 19:22:02;;;;;;;5.45;1.55;;;6.70;99.90;;;;;;20551323;28;20557;-45
2022/01/22 19:31:55;;;;;;;5.38;2.40;;;6.70;99.90;;;;;;20545028;28;20097;-45
2022/01/22 19:41:58;;;;;;;20.23;7.55;;;6.60;99.90;;;;;;20555699;28;20502;-45
2022/01/22 19:51:59;;;;;;;16.73;6.93;;;6.60;99.90;;;;;;20558422;28;20402;-45
2022/01/22 20:02:00;;;;;;;9.27;3.60;;;6.60;99.90;;;;;;20558224;28;20043;-45
2022/01/22 20:12:00;;;;;;;9.27;3.53;;;6.50;99.90;;;;;;20564403;28;20051;-45
2022/01/22 20:22:03;;;;;;;12.50;4.93;;;6.50;99.90;;;;;;20555559;28;20435;-45
2022/01/22 20:32:04;;;;;;;18.33;6.45;;;6.50;99.90;;;;;;20545224;28;20285;-44
2022/01/22 20:42:06;;;;;;;10.88;4.35;;;6.50;99.90;;;;;;20558434;28;20130;-44
2022/01/22 20:52:07;;;;;;;11.02;4.35;;;6.60;99.90;;;;;;20566663;28;20661;-45
2022/01/22 21:02:08;;;;;;;11.63;4.45;;;6.60;99.90;;;;;;20577599;28;20055;-45
2022/01/22 21:12:09;;;;;;;18.60;4.40;;;6.60;99.90;;;;;;20563918;28;20447;-45
2022/01/22 21:22:09;;;;;;;11.98;4.28;;;6.60;99.90;;;;;;20568276;28;20129;-45
2022/01/22 21:32:10;;;;;;;10.20;3.38;;;6.60;99.90;;;;;;20560372;28;20058;-45
2022/01/22 21:42:35;;;;;;;12.52;5.00;;;6.50;99.90;;;;;;20537236;28;20850;-45
2022/01/22 21:52:36;;;;;;;13.25;5.97;;;6.60;99.90;;;;;;20566857;28;20055;-45
2022/01/22 22:02:37;;;;;;;12.55;4.78;;;6.60;99.90;;;;;;20563737;28;20573;-45
2022/01/22 22:12:38;;;;;;;18.80;5.05;;;6.60;99.90;;;;;;20572263;28;20513;-45
2022/01/22 22:22:39;;;;;;;10.15;5.25;;;6.60;99.90;;;;;;20559598;28;20046;-45
2022/01/22 22:32:46;;;;;;;11.52;5.00;;;6.60;99.90;;;;;;20566585;28;20125;-45
2022/01/22 22:42:56;;;;;;;8.98;3.25;;;6.60;99.90;;;;;;20567927;28;20031;-45
2022/01/22 22:52:58;;;;;;;6.57;3.78;;;6.60;99.90;;;;;;20561254;28;20566;-45
2022/01/22 23:03:00;;;;;;;5.22;2.22;;;6.60;99.90;;;;;;20566567;28;20062;-45
2022/01/22 23:13:00;;;;;;;4.25;2.08;;;6.50;99.90;;;;;;20566644;28;20089;-45
